Time;durP1;ratioP1;P1;durP2;ratioP2;P2;SDS_P1;SDS_P2;PMS_P1;PMS_P2;Temp;Humidity;BMP_temperature;BMP_pressure;BME280_temperature;BME280_humidity;BME280_pressure;Samples;Min_cycle;Max_cycle;Signal;HPM_P1;HPM_P2
2023/03/18 00:01:46;;;;;;;20.15;7.60;;;;;;;9.77;100.00;99260.53;4877336;29;20116;-92
2023/03/18 00:04:12;;;;;;;20.33;7.18;;;;;;;9.74;100.00;99246.13;4877320;29;20392;-92
2023/03/18 00:06:37;;;;;;;18.30;6.68;;;;;;;9.80;100.00;99250.84;4877652;29;20021;-92
2023/03/18 00:09:03;;;;;;;22.65;7.45;;;;;;;9.76;100.00;99239.09;4891812;29;20480;-93
2023/03/18 00:11:30;;;;;;;12.90;6.45;;;;;;;9.82;100.00;99243.78;4882669;29;20032;-94
2023/03/18 00:13:58;;;;;;;15.38;7.70;;;;;;;9.77;100.00;99255.38;4895924;29;20481;-93
2023/03/18 00:16:25;;;;;;;21.33;8.40;;;;;;;9.71;100.00;99254.06;4877293;29;20551;-94
2023/03/18 00:18:52;;;;;;;18.42;7.35;;;;;;;9.64;100.00;99250.28;4877451;29;20037;-92
2023/03/18 00:21:18;;;;;;;18.60;7.78;;;;;;;9.64;100.00;99250.28;4877152;29;20037;-92
2023/03/18 00:23:43;;;;;;;24.10;8.73;;;;;;;9.79;100.00;99254.31;4876532;29;20040;-93
2023/03/18 00:26:09;;;;;;;24.80;9.02;;;;;;;9.72;100.00;99247.97;4892914;29;20120;-92
2023/03/18 00:28:36;;;;;;;21.63;8.38;;;;;;;9.79;100.00;99258.66;4877501;29;20036;-92
2023/03/18 00:31:07;;;;;;;26.52;8.43;;;;;;;9.65;100.00;99239.03;4877045;29;20037;-92
2023/03/18 00:33:38;;;;;;;27.02;8.77;;;;;;;9.66;100.00;99245.84;4878836;29;20025;-92
2023/03/18 00:36:05;;;;;;;24.95;7.78;;;;;;;9.66;100.00;99235.56;4881084;29;20116;-93
2023/03/18 00:38:32;;;;;;;23.10;8.23;;;;;;;9.65;100.00;99234.72;4880900;29;20437;-94
2023/03/18 00:41:10;;;;;;;22.55;8.30;;;;;;;9.74;100.00;99240.97;4895815;29;20077;-93
2023/03/18 00:43:44;;;;;;;27.48;8.52;;;;;;;9.81;100.00;99249.88;4880919;29;20053;-93
2023/03/18 00:46:11;;;;;;;25.52;10.43;;;;;;;9.70;100.00;99239.53;4881759;29;20432;-92
2023/03/18 00:48:37;;;;;;;25.45;9.73;;;;;;;9.72;100.00;99242.81;4899508;29;20025;-94
2023/03/18 00:51:03;;;;;;;26.02;9.70;;;;;;;9.73;100.00;99239.31;4904797;29;20447;-93
2023/03/18 00:53:29;;;;;;;22.55;10.20;;;;;;;9.78;100.00;99244.97;4879523;29;20063;-93
2023/03/18 00:55:54;;;;;;;28.23;12.40;;;;;;;9.82;100.00;99255.84;4880532;29;20437;-92
2023/03/18 00:58:20;;;;;;;22.25;12.10;;;;;;;9.82;100.00;99254.09;4880405;29;20116;-92
2023/03/18 01:00:45;;;;;;;23.30;10.45;;;;;;;9.78;100.00;99259.59;4880278;29;20037;-93
2023/03/18 01:03:12;;;;;;;23.70;9.75;;;;;;;9.81;100.00;99254.22;4880581;29;20101;-92
2023/03/18 01:05:38;;;;;;;28.38;9.85;;;;;;;9.83;100.00;99255.75;4879930;29;20029;-94
2023/03/18 01:08:04;;;;;;;20.63;8.82;;;;;;;9.65;100.00;99236.47;4895568;29;20033;-93
2023/03/18 01:10:30;;;;;;;26.38;8.70;;;;;;;9.79;100.00;99245.78;4896907;29;20033;-93
2023/03/18 01:12:56;;;;;;;20.38;8.55;;;;;;;9.64;100.00;99227.13;4899117;29;20035;-93
2023/03/18 01:15:22;;;;;;;31.85;9.80;;;;;;;9.56;100.00;99231.97;4900081;29;20029;-94
2023/03/18 01:17:48;;;;;;;20.70;9.27;;;;;;;9.68;100.00;99245.72;4898955;29;20673;-93
2023/03/18 01:20:16;;;;;;;20.65;8.15;;;;;;;9.78;100.00;99252.69;4889087;29;20383;-93
2023/03/18 01:22:43;;;;;;;22.52;8.82;;;;;;;9.70;100.00;99249.84;4879275;29;20037;-93
2023/03/18 01:25:10;;;;;;;18.45;8.52;;;;;;;9.72;100.00;99253.13;4879648;29;20128;-93
2023/03/18 01:27:36;;;;;;;23.42;8.38;;;;;;;9.58;100.00;99240.41;4880174;29;20472;-93
2023/03/18 01:30:03;;;;;;;25.17;8.48;;;;;;;9.60;100.00;99229.06;4879901;29;20092;-93
2023/03/18 01:32:29;;;;;;;24.02;9.57;;;;;;;9.66;100.00;99232.97;4879963;29;20522;-92
2023/03/18 01:34:54;;;;;;;25.90;8.77;;;;;;;9.66;100.00;99225.25;4879878;29;20025;-92
2023/03/18 01:37:20;;;;;;;27.85;10.32;;;;;;;9.70;100.00;99231.81;4879980;29;20064;-93
2023/03/18 01:39:46;;;;;;;23.58;8.18;;;;;;;9.72;100.00;99237.66;4879454;29;20021;-93
2023/03/18 01:42:13;;;;;;;23.50;9.38;;;;;;;9.75;100.00;99227.13;4894254;29;20039;-93
2023/03/18 01:44:39;;;;;;;26.92;9.38;;;;;;;9.63;100.00;99213.41;4894045;29;20033;-92
2023/03/18 01:47:05;;;;;;;22.70;8.27;;;;;;;9.63;100.00;99223.72;4880180;29;20116;-94
2023/03/18 01:49:38;;;;;;;27.40;9.27;;;;;;;9.75;100.00;99226.31;4895258;29;20523;-93
2023/03/18 01:52:06;;;;;;;22.95;8.95;;;;;;;9.79;100.00;99232.91;4878731;29;20036;-93
2023/03/18 01:54:37;;;;;;;28.58;8.88;;;;;;;9.77;100.00;99235.56;4894943;29;20100;-93
2023/03/18 01:57:03;;;;;;;22.08;9.00;;;;;;;9.69;100.00;99222.44;4879313;29;20033;-94
2023/03/18 01:59:32;;;;;;;25.95;7.50;;;;;;;9.66;100.00;99217.53;4894155;29;20044;-92
2023/03/18 02:02:08;;;;;;;26.75;8.00;;;;;;;9.70;100.00;99224.06;4880547;29;20025;-92
2023/03/18 02:04:43;;;;;;;22.52;8.48;;;;;;;9.58;100.00;99230.13;4879545;29;20043;-94
2023/03/18 02:07:16;;;;;;;22.77;7.65;;;;;;;9.72;100.00;99223.97;4879724;29;20036;-94
2023/03/18 02:09:42;;;;;;;21.40;7.00;;;;;;;9.65;100.00;99205.56;4879785;29;20535;-95
2023/03/18 02:12:08;;;;;;;27.55;7.95;;;;;;;9.55;100.00;99200.25;4879922;29;20029;-95
2023/03/18 02:14:33;;;;;;;22.98;8.13;;;;;;;9.54;100.00;99203.78;4895154;29;20492;-95
2023/03/18 02:17:03;;;;;;;24.73;8.25;;;;;;;9.56;100.00;99198.50;4895465;29;20040;-94
2023/03/18 02:19:51;;;;;;;28.15;8.02;;;;;;;9.66;100.00;99222.66;4895260;29;20033;-95
2023/03/18 02:22:25;;;;;;;23.17;7.45;;;;;;;9.61;100.00;99219.63;4893982;29;20032;-95
2023/03/18 02:25:03;;;;;;;21.10;7.13;;;;;;;9.63;100.00;99226.28;4882115;29;20025;-94
2023/03/18 02:27:34;;;;;;;18.13;6.53;;;;;;;9.67;100.00;99224.31;4894949;29;20032;-94
2023/03/18 02:30:04;;;;;;;18.52;6.55;;;;;;;9.45;100.00;99188.16;4878908;29;20036;-94
2023/03/18 02:32:32;;;;;;;26.30;7.32;;;;;;;9.49;100.00;99195.56;4878346;29;20036;-95
2023/03/18 02:35:02;;;;;;;18.20;6.93;;;;;;;9.57;100.00;99202.72;4878090;29;20065;-95
2023/03/18 02:37:27;;;;;;;14.68;5.80;;;;;;;9.60;100.00;99207.66;4878952;29;20033;-95
2023/03/18 02:39:53;;;;;;;18.73;6.90;;;;;;;9.64;100.00;99214.22;4894762;29;20032;-96
2023/03/18 02:42:31;;;;;;;16.30;5.88;;;;;;;9.58;100.00;99214.66;4879335;29;20112;-96
2023/03/18 02:44:57;;;;;;;14.80;5.85;;;;;;;9.61;100.00;99219.63;4878935;29;20033;-94
2023/03/18 02:47:25;;;;;;;15.25;5.68;;;;;;;9.47;100.00;99201.75;4879240;29;20097;-96
2023/03/18 02:49:52;;;;;;;17.45;6.35;;;;;;;9.50;100.00;99202.34;4879036;29;20487;-95
2023/03/18 02:52:17;;;;;;;15.63;7.03;;;;;;;9.55;100.00;99209.75;4878153;29;20033;-95
2023/03/18 02:54:42;;;;;;;18.20;5.35;;;;;;;9.49;100.00;99202.47;4878623;29;20025;-95
2023/03/18 02:57:08;;;;;;;14.05;5.22;;;;;;;9.65;100.00;99218.44;4878229;29;20540;-95
2023/03/18 02:59:34;;;;;;;19.02;6.50;;;;;;;9.31;100.00;99182.25;4878410;29;20277;-95
2023/03/18 03:02:00;;;;;;;15.25;6.00;;;;;;;9.48;100.00;99219.66;4893662;29;20395;-95
2023/03/18 03:04:26;;;;;;;13.88;5.40;;;;;;;9.42;100.00;99204.66;4878668;29;20024;-96
2023/03/18 03:06:54;;;;;;;12.80;5.72;;;;;;;9.45;100.00;99201.88;4894296;29;20408;-96
2023/03/18 03:09:21;;;;;;;18.00;7.30;;;;;;;9.48;100.00;99226.56;4894138;29;20018;-95
2023/03/18 03:11:47;;;;;;;15.88;6.55;;;;;;;9.33;100.00;99206.13;4894449;29;20100;-96
2023/03/18 03:14:15;;;;;;;15.63;7.35;;;;;;;9.46;100.00;99216.41;4878353;29;20120;-95
2023/03/18 03:16:41;;;;;;;21.92;7.60;;;;;;;9.36;100.00;99212.81;4878532;29;20496;-94
2023/03/18 03:19:06;;;;;;;24.92;8.38;;;;;;;9.35;100.00;99206.84;4878188;29;20037;-95
2023/03/18 03:21:34;;;;;;;27.15;8.45;;;;;;;9.37;100.00;99206.75;4877993;29;20035;-94
2023/03/18 03:24:04;;;;;;;31.00;7.35;;;;;;;9.23;100.00;99214.66;4893673;29;20181;-95
2023/03/18 03:26:30;;;;;;;25.13;7.07;;;;;;;9.05;100.00;99214.22;4893861;29;20033;-96
2023/03/18 03:28:55;;;;;;;17.65;6.88;;;;;;;9.12;100.00;99217.97;4878465;29;20085;-95
2023/03/18 03:31:22;;;;;;;18.52;7.07;;;;;;;8.84;100.00;99204.47;4878486;29;20036;-94
2023/03/18 03:33:48;;;;;;;24.67;8.05;;;;;;;8.86;100.00;99202.63;4878721;29;20033;-94
2023/03/18 03:36:15;;;;;;;22.63;6.80;;;;;;;8.98;100.00;99212.06;4878399;29;20180;-95
2023/03/18 03:38:41;;;;;;;21.02;6.95;;;;;;;9.12;100.00;99215.38;4878350;29;20021;-95
2023/03/18 03:41:09;;;;;;;23.92;8.13;;;;;;;9.21;100.00;99232.75;4878281;29;20028;-94
2023/03/18 03:43:35;;;;;;;29.25;7.32;;;;;;;9.15;100.00;99222.91;4878168;29;20082;-94
2023/03/18 03:46:01;;;;;;;34.90;8.23;;;;;;;9.13;100.00;99209.34;4893861;29;20033;-94
2023/03/18 03:48:26;;;;;;;20.98;6.88;;;;;;;9.16;100.00;99214.25;4894010;29;20432;-94
2023/03/18 03:50:52;;;;;;;23.95;7.25;;;;;;;9.14;100.00;99205.81;4878246;29;20479;-94
2023/03/18 03:53:19;;;;;;;27.13;7.70;;;;;;;9.19;100.00;99206.31;4877303;29;20025;-96
2023/03/18 03:55:45;;;;;;;24.27;7.43;;;;;;;9.29;100.00;99227.06;4893806;29;20061;-94
2023/03/18 03:58:10;;;;;;;20.13;8.15;;;;;;;9.25;100.00;99230.81;4878107;29;20068;-95
2023/03/18 04:00:36;;;;;;;19.27;6.35;;;;;;;9.28;100.00;99222.84;4892560;29;20021;-95
2023/03/18 04:03:03;;;;;;;23.38;6.97;;;;;;;9.27;100.00;99229.78;4877992;29;20037;-95
2023/03/18 04:05:28;;;;;;;13.85;6.43;;;;;;;9.36;100.00;99242.00;4877723;29;20037;-96
2023/03/18 04:07:54;;;;;;;25.48;7.68;;;;;;;9.23;100.00;99218.03;4877682;29;20109;-95
2023/03/18 04:10:21;;;;;;;17.63;6.38;;;;;;;9.25;100.00;99229.06;4877126;29;20128;-94
2023/03/18 04:12:48;;;;;;;17.10;6.30;;;;;;;9.21;100.00;99223.28;4878208;29;20500;-94
2023/03/18 04:15:16;;;;;;;17.55;7.07;;;;;;;9.47;100.00;99263.56;4877646;29;20033;-95
2023/03/18 04:17:41;;;;;;;24.27;7.40;;;;;;;9.54;100.00;99259.63;4893571;29;20060;-94
2023/03/18 04:20:07;;;;;;;20.50;7.72;;;;;;;9.35;100.00;99248.06;4877669;29;20507;-95
2023/03/18 04:22:33;;;;;;;22.05;7.38;;;;;;;9.30;100.00;99239.03;4877056;29;20499;-94
2023/03/18 04:24:59;;;;;;;28.98;7.00;;;;;;;9.26;100.00;99243.56;4877089;29;20030;-93
2023/03/18 04:27:26;;;;;;;29.52;5.82;;;;;;;9.32;100.00;99240.56;4877853;29;20041;-94
2023/03/18 04:29:52;;;;;;;23.17;6.15;;;;;;;9.29;100.00;99234.78;4878092;29;20052;-95
2023/03/18 04:32:18;;;;;;;25.85;5.45;;;;;;;9.23;100.00;99236.06;4893301;29;20037;-96
2023/03/18 04:34:43;;;;;;;25.65;6.22;;;;;;;9.13;100.00;99222.19;4877293;29;20736;-94
2023/03/18 04:37:10;;;;;;;24.70;5.60;;;;;;;9.24;100.00;99244.59;4877493;29;20116;-94
2023/03/18 04:39:36;;;;;;;23.52;4.95;;;;;;;9.22;100.00;99239.56;4877721;29;20033;-94
2023/03/18 04:42:01;;;;;;;22.92;5.60;;;;;;;9.19;100.00;99240.63;4877772;29;20491;-94
2023/03/18 04:44:26;;;;;;;17.95;4.45;;;;;;;9.12;100.00;99236.84;4877657;29;20091;-94
2023/03/18 04:46:52;;;;;;;18.50;4.18;;;;;;;9.12;100.00;99231.69;4878042;29;20388;-95
2023/03/18 04:49:19;;;;;;;27.65;5.32;;;;;;;9.15;100.00;99235.78;4877725;29;20434;-94
2023/03/18 04:51:45;;;;;;;23.02;4.35;;;;;;;9.09;100.00;99231.88;4892600;29;20052;-94
2023/03/18 04:54:11;;;;;;;29.30;4.70;;;;;;;8.99;100.00;99226.56;4877379;29;20021;-95
2023/03/18 04:56:37;;;;;;;20.85;4.18;;;;;;;9.03;100.00;99234.91;4877454;29;20116;-94
2023/03/18 04:59:03;;;;;;;25.33;4.57;;;;;;;9.20;100.00;99259.44;4877303;29;20100;-94
2023/03/18 05:01:28;;;;;;;27.65;4.55;;;;;;;9.24;100.00;99247.16;4877229;29;20472;-95
2023/03/18 05:03:54;;;;;;;20.65;4.50;;;;;;;9.21;100.00;99248.22;4892771;29;20059;-96
2023/03/18 05:06:26;;;;;;;19.42;4.00;;;;;;;9.20;100.00;99233.72;4877628;29;20412;-96
2023/03/18 05:08:51;;;;;;;;;;;;;;;9.31;100.00;99264.66;4877691;29;20032;-95
2023/03/18 05:11:18;;;;;;;15.75;3.67;;;;;;;9.23;100.00;99237.81;4877452;29;19919;-95
2023/03/18 05:13:44;;;;;;;28.02;5.70;;;;;;;9.22;100.00;99244.72;4877214;29;20021;-94
2023/03/18 05:16:09;;;;;;;30.58;6.10;;;;;;;9.23;100.00;99251.50;4892920;29;20029;-95
2023/03/18 05:18:35;;;;;;;24.00;5.20;;;;;;;9.14;100.00;99244.44;4892548;29;20080;-95
2023/03/18 05:21:01;;;;;;;31.23;6.03;;;;;;;9.08;100.00;99243.13;4879425;29;20029;-95
2023/03/18 05:23:28;;;;;;;28.55;5.25;;;;;;;9.10;100.00;99243.03;4880225;29;20025;-95
2023/03/18 05:25:54;;;;;;;19.25;4.47;;;;;;;9.19;100.00;99245.75;4880060;29;20039;-96
2023/03/18 05:28:22;;;;;;;27.42;5.80;;;;;;;9.05;100.00;99235.63;4895943;29;20618;-95
2023/03/18 05:30:47;;;;;;;30.48;6.18;;;;;;;9.15;100.00;99246.09;4880692;29;20025;-94
2023/03/18 05:33:13;;;;;;;27.58;5.70;;;;;;;9.14;100.00;99254.72;4880744;29;20040;-94
2023/03/18 05:35:38;;;;;;;28.38;5.70;;;;;;;9.11;100.00;99249.78;4879896;29;20373;-96
2023/03/18 05:38:05;;;;;;;30.73;5.10;;;;;;;9.17;100.00;99267.41;4879759;29;20037;-94
2023/03/18 05:40:31;;;;;;;26.58;5.82;;;;;;;9.10;100.00;99250.75;4880071;29;20065;-94
2023/03/18 05:42:57;;;;;;;35.55;5.35;;;;;;;9.21;100.00;99268.81;4895720;29;20059;-93
2023/03/18 05:45:23;;;;;;;25.60;6.07;;;;;;;9.21;100.00;99273.97;4879907;29;20480;-94
2023/03/18 05:47:48;;;;;;;30.23;5.53;;;;;;;9.25;100.00;99274.56;4880406;29;20029;-95
2023/03/18 05:50:36;;;;;;;27.15;6.45;;;;;;;9.11;100.00;99258.34;4879805;29;20064;-95
2023/03/18 05:53:03;;;;;;;28.73;5.95;;;;;;;9.18;100.00;99269.03;4880040;29;20092;-95
2023/03/18 05:55:29;;;;;;;37.10;7.05;;;;;;;9.12;100.00;99264.31;4895921;29;20065;-93
2023/03/18 05:57:56;;;;;;;41.75;6.95;;;;;;;9.18;100.00;99284.47;4879687;29;20072;-94
2023/03/18 06:00:23;;;;;;;33.05;6.97;;;;;;;9.19;100.00;99278.38;4879393;29;20084;-94
2023/03/18 06:02:51;;;;;;;51.53;7.38;;;;;;;9.01;100.00;99249.63;4879630;29;20040;-96
2023/03/18 06:05:17;;;;;;;36.10;5.90;;;;;;;9.11;100.00;99283.25;4879733;29;20036;-94
2023/03/18 06:07:44;;;;;;;34.38;7.10;;;;;;;9.01;100.00;99259.91;4895330;29;20423;-95
2023/03/18 06:10:11;;;;;;;31.45;6.50;;;;;;;8.97;100.00;99256.75;4879668;29;20036;-96
2023/03/18 06:12:37;;;;;;;28.00;6.53;;;;;;;8.98;100.00;99255.00;4895230;29;20044;-93
2023/03/18 06:15:03;;;;;;;34.47;6.20;;;;;;;9.03;100.00;99280.41;4895276;29;20063;-95
2023/03/18 06:17:29;;;;;;;28.10;5.78;;;;;;;9.07;100.00;99267.22;4879655;29;20029;-93
2023/03/18 06:19:55;;;;;;;33.45;7.82;;;;;;;9.13;100.00;99281.41;4895314;29;20124;-96
2023/03/18 06:22:21;;;;;;;26.60;4.90;;;;;;;9.11;100.00;99280.69;4879327;29;20037;-93
2023/03/18 06:24:47;;;;;;;29.00;5.63;;;;;;;9.07;100.00;99286.97;4878924;29;20154;-94
2023/03/18 06:27:12;;;;;;;22.70;4.93;;;;;;;9.11;100.00;99289.22;4894931;29;20033;-95
2023/03/18 06:29:38;;;;;;;36.17;5.22;;;;;;;9.02;100.00;99291.63;4879028;29;20104;-93
2023/03/18 06:32:03;;;;;;;28.13;5.13;;;;;;;9.15;100.00;99307.88;4880105;29;20036;-92
2023/03/18 06:34:29;;;;;;;22.13;5.47;;;;;;;9.17;100.00;99319.69;4878671;29;20025;-94
2023/03/18 06:36:55;;;;;;;33.17;5.28;;;;;;;9.04;100.00;99288.00;4878579;29;20039;-93
2023/03/18 06:39:21;;;;;;;35.78;4.82;;;;;;;9.12;100.00;99302.91;4894392;29;20055;-94
2023/03/18 06:41:47;;;;;;;27.55;4.47;;;;;;;9.10;100.00;99294.50;4878856;29;20049;-93
2023/03/18 06:44:12;;;;;;;26.42;4.80;;;;;;;9.10;100.00;99312.50;4878803;29;20033;-95
2023/03/18 06:46:38;;;;;;;31.27;5.25;;;;;;;9.05;100.00;99314.59;4879104;29;20077;-94
2023/03/18 06:49:04;;;;;;;21.67;4.20;;;;;;;9.11;100.00;99317.53;4878423;29;20076;-93
2023/03/18 06:51:31;;;;;;;23.20;6.07;;;;;;;8.93;100.00;99291.34;4878799;29;20355;-93
2023/03/18 06:53:57;;;;;;;20.33;3.92;;;;;;;9.17;100.00;99324.03;4878386;29;20053;-93
2023/03/18 06:56:22;;;;;;;23.55;4.43;;;;;;;9.21;100.00;99312.56;4878734;29;20029;-95
2023/03/18 06:58:48;;;;;;;35.17;4.90;;;;;;;9.22;100.00;99324.53;4878717;29;20024;-92
2023/03/18 07:01:13;;;;;;;29.00;4.47;;;;;;;9.29;100.00;99307.72;4878132;29;20120;-93
2023/03/18 07:03:39;;;;;;;32.22;3.83;;;;;;;9.51;100.00;99332.78;4878503;29;20399;-93
2023/03/18 07:06:06;;;;;;;27.80;4.95;;;;;;;9.55;100.00;99333.38;4878197;29;20029;-94
2023/03/18 07:08:32;;;;;;;23.23;3.50;;;;;;;9.57;100.00;99316.06;4895378;29;20029;-94
2023/03/18 07:10:57;;;;;;;28.02;4.32;;;;;;;9.74;100.00;99333.72;4878780;29;20052;-95
2023/03/18 07:13:22;;;;;;;17.42;3.75;;;;;;;10.05;100.00;99337.47;4893939;29;20061;-93
2023/03/18 07:15:48;;;;;;;13.85;3.47;;;;;;;10.14;100.00;99315.34;4878210;29;20515;-94
2023/03/18 07:18:13;;;;;;;23.48;4.88;;;;;;;10.26;100.00;99322.19;4891464;29;20491;-95
2023/03/18 07:20:40;;;;;;;19.38;3.17;;;;;;;10.66;100.00;99339.88;4893834;29;20049;-96
2023/03/18 07:23:06;;;;;;;31.50;4.88;;;;;;;10.54;100.00;99343.38;4893895;29;20029;-94
2023/03/18 07:25:31;;;;;;;31.33;4.40;;;;;;;10.31;100.00;99342.50;4893685;29;20408;-94
2023/03/18 07:27:59;;;;;;;23.98;4.60;;;;;;;10.22;100.00;99333.69;4893320;29;20124;-96
2023/03/18 07:30:26;;;;;;;24.70;3.88;;;;;;;10.31;100.00;99344.25;4878592;29;20044;-95
2023/03/18 07:32:51;;;;;;;23.35;4.07;;;;;;;10.62;100.00;99348.78;4878051;29;20029;-95
2023/03/18 07:35:17;;;;;;;22.52;3.92;;;;;;;11.02;100.00;99347.50;4891975;29;20503;-95
2023/03/18 07:37:42;;;;;;;25.33;4.82;;;;;;;11.72;100.00;99346.34;4877880;29;20510;-94
2023/03/18 07:40:10;;;;;;;14.80;3.47;;;;;;;14.53;88.02;99361.31;4877743;29;20029;-94
2023/03/18 07:42:36;;;;;;;17.10;3.60;;;;;;;12.72;95.59;99346.00;4877414;29;20025;-96
2023/03/18 07:45:01;;;;;;;21.27;4.05;;;;;;;11.89;100.00;99347.63;4877490;29;20029;-94
2023/03/18 07:47:26;;;;;;;26.65;4.13;;;;;;;11.11;100.00;99347.63;4877971;29;20029;-93
2023/03/18 07:49:52;;;;;;;24.98;5.05;;;;;;;11.40;100.00;99367.81;4878011;29;20040;-94
2023/03/18 07:52:18;;;;;;;34.63;6.13;;;;;;;11.46;100.00;99349.25;4878033;29;20514;-94
2023/03/18 07:54:44;;;;;;;21.38;4.07;;;;;;;11.90;100.00;99365.63;4877680;29;20076;-94
2023/03/18 07:57:10;;;;;;;22.88;3.95;;;;;;;11.55;100.00;99361.44;4877613;29;20041;-95
2023/03/18 07:59:36;;;;;;;15.32;3.10;;;;;;;11.25;99.37;99350.94;4877965;29;20037;-95
2023/03/18 08:02:03;;;;;;;18.25;3.60;;;;;;;11.66;100.00;99365.75;4877833;29;20025;-94
2023/03/18 08:04:30;;;;;;;23.73;3.53;;;;;;;11.31;100.00;99358.19;4892093;29;20574;-94
2023/03/18 08:06:56;;;;;;;18.63;3.67;;;;;;;11.18;100.00;99373.00;4877178;29;20479;-95
2023/03/18 08:09:22;;;;;;;16.42;3.22;;;;;;;11.09;100.00;99371.94;4877701;29;20091;-95
2023/03/18 08:11:48;;;;;;;23.95;3.28;;;;;;;11.31;100.00;99374.53;4878222;29;20037;-94
2023/03/18 08:14:13;;;;;;;13.88;2.92;;;;;;;11.97;96.83;99361.59;4893474;29;20025;-94
2023/03/18 08:16:38;;;;;;;41.28;4.00;;;;;;;13.25;87.63;99358.78;4877369;29;20101;-95
2023/03/18 08:19:04;;;;;;;24.88;3.25;;;;;;;13.33;85.91;99356.34;4877945;29;20500;-95
2023/03/18 08:21:30;;;;;;;10.63;3.00;;;;;;;13.78;86.01;99365.47;4878250;29;20033;-93
2023/03/18 08:23:56;;;;;;;16.77;3.10;;;;;;;17.22;68.93;99369.28;4877839;29;20029;-93
2023/03/18 08:26:21;;;;;;;19.17;3.13;;;;;;;19.75;57.63;99385.75;4877508;29;20058;-94
2023/03/18 08:28:47;;;;;;;14.68;2.60;;;;;;;17.45;64.57;99385.19;4877253;29;20031;-94
2023/03/18 08:31:13;;;;;;;13.18;2.55;;;;;;;15.97;68.86;99386.84;4877579;29;20406;-94
2023/03/18 08:33:39;;;;;;;14.05;2.90;;;;;;;15.80;69.27;99395.44;4892793;29;20546;-94
2023/03/18 08:36:07;;;;;;;20.30;2.95;;;;;;;14.97;71.69;99382.41;4874363;29;20033;-93
2023/03/18 08:38:32;;;;;;;11.55;2.45;;;;;;;14.67;75.02;99388.66;4858737;29;20473;-94
2023/03/18 08:40:58;;;;;;;18.00;3.60;;;;;;;14.60;74.84;99383.19;4876646;29;20040;-95
2023/03/18 08:43:24;;;;;;;15.98;2.85;;;;;;;14.24;76.13;99408.06;4877391;29;20033;-94
2023/03/18 08:45:53;;;;;;;21.40;4.13;;;;;;;14.01;76.31;99397.97;4892755;29;20520;-94
2023/03/18 08:48:20;;;;;;;19.80;2.85;;;;;;;14.33;75.01;99409.84;4877901;29;20572;-95
2023/03/18 08:50:45;;;;;;;19.42;4.22;;;;;;;13.95;75.81;99397.69;4877208;29;20029;-93
2023/03/18 08:53:12;;;;;;;18.67;3.40;;;;;;;14.00;79.48;99406.72;4876853;29;20057;-94
2023/03/18 08:55:38;;;;;;;19.50;2.80;;;;;;;13.82;81.46;99409.13;4893442;29;20043;-94
2023/03/18 08:58:04;;;;;;;16.25;3.10;;;;;;;13.56;78.37;99395.88;4880479;29;20393;-96
2023/03/18 09:00:31;;;;;;;22.58;4.00;;;;;;;13.60;76.70;99405.00;4878507;29;20025;-96
2023/03/18 09:02:56;;;;;;;22.50;2.60;;;;;;;13.73;79.48;99404.78;4896181;29;20392;-95
2023/03/18 09:05:22;;;;;;;25.35;3.65;;;;;;;13.60;76.54;99405.00;4879588;29;20029;-95
2023/03/18 09:07:48;;;;;;;20.23;2.63;;;;;;;13.70;77.87;99421.41;4889478;29;20037;-95
2023/03/18 09:10:13;;;;;;;17.38;2.88;;;;;;;14.94;74.71;99412.09;4880674;29;20021;-93
2023/03/18 09:12:43;;;;;;;17.33;2.90;;;;;;;18.43;59.75;99426.31;4879416;29;20112;-94
2023/03/18 09:15:11;;;;;;;23.30;4.03;;;;;;;18.95;54.32;99423.34;4880841;29;20057;-95
2023/03/18 09:17:41;;;;;;;15.80;2.90;;;;;;;18.46;56.47;99439.03;4877286;29;20045;-94
2023/03/18 09:20:08;;;;;;;14.10;2.67;;;;;;;23.72;44.66;99447.34;4876218;29;20041;-94
2023/03/18 09:22:35;;;;;;;15.98;3.15;;;;;;;27.47;37.20;99441.16;4889800;29;20092;-96
2023/03/18 09:25:01;;;;;;;9.98;1.90;;;;;;;30.17;33.07;99458.94;4877006;29;20037;-96
2023/03/18 09:27:27;;;;;;;12.90;2.20;;;;;;;32.76;31.10;99440.09;4892061;29;20041;-96
2023/03/18 09:29:52;;;;;;;14.68;4.00;;;;;;;33.73;27.04;99442.38;4877166;29;20083;-96
2023/03/18 09:32:18;;;;;;;11.00;2.67;;;;;;;33.45;27.05;99440.94;4877589;29;20021;-96
2023/03/18 09:34:43;;;;;;;12.50;2.10;;;;;;;27.95;31.18;99451.78;4878313;29;20043;-95
2023/03/18 09:37:10;;;;;;;12.35;3.10;;;;;;;29.09;31.20;99453.41;4893082;29;20439;-96
2023/03/18 09:39:36;;;;;;;10.70;2.67;;;;;;;25.98;35.07;99449.00;4877673;29;20040;-95
2023/03/18 09:42:27;;;;;;;11.82;2.15;;;;;;;25.51;36.47;99464.25;4893007;29;20029;-96
2023/03/18 09:44:59;;;;;;;11.80;2.90;;;;;;;24.84;38.29;99482.03;4892951;29;20500;-95
2023/03/18 09:47:33;;;;;;;12.18;2.38;;;;;;;27.27;34.29;99462.59;4877979;29;20037;-96
2023/03/18 09:50:30;;;;;;;9.82;2.55;;;;;;;30.31;30.58;99490.59;4893009;29;20045;-96
2023/03/18 09:53:45;;;;;;;13.52;2.90;;;;;;;24.52;38.05;99471.28;4894640;29;20567;-95
2023/03/18 09:56:19;;;;;;;14.82;3.20;;;;;;;23.79;39.94;99456.13;4881821;29;20136;-96
2023/03/18 09:59:03;;;;;;;16.88;3.25;;;;;;;22.80;42.74;99466.88;4893612;29;20033;-96
2023/03/18 10:01:33;;;;;;;14.52;2.78;;;;;;;26.03;36.68;99451.81;4878689;29;20511;-95
2023/03/18 10:04:26;;;;;;;14.15;2.60;;;;;;;28.64;33.33;99562.84;4877162;29;20033;-96
2023/03/18 10:07:06;;;;;;;16.23;2.97;;;;;;;30.95;29.20;99619.00;4881193;29;20049;-96
2023/03/18 10:09:41;;;;;;;11.18;2.83;;;;;;;33.93;26.39;99645.06;4895180;29;20120;-96
2023/03/18 10:12:17;;;;;;;9.40;2.55;;;;;;;33.58;26.00;99485.97;4895632;29;20025;-96
2023/03/18 10:14:48;;;;;;;11.02;2.50;;;;;;;30.83;30.30;99634.25;4882795;29;20375;-96
2023/03/18 10:17:34;;;;;;;10.88;2.20;;;;;;;25.69;35.82;99466.22;4901730;29;20045;-96
2023/03/18 10:20:20;;;;;;;;;;;;;;;;;;;;;
2023/03/18 10:23:09;;;;;;;11.82;2.17;;;;;;;33.51;25.99;99530.88;4893433;29;20466;-96
2023/03/18 10:26:17;;;;;;;;;;;;;;;;;;;;;
2023/03/18 10:29:15;;;;;;;14.63;2.70;;;;;;;35.69;23.75;99924.16;4965369;29;20111;-96
2023/03/18 10:32:30;;;;;;;9.10;2.35;;;;;;;33.38;25.60;99933.38;4955590;29;20031;-96
2023/03/18 10:34:57;;;;;;;12.07;3.28;;;;;;;32.16;27.47;99495.44;4965531;28;20606;-96
2023/03/18 12:26:31;;;;;;;5.18;0.90;;;;;;;18.29;57.91;99493.91;4966119;28;20047;-96
2023/03/18 12:29:30;;;;;;;9.05;0.90;;;;;;;16.98;62.18;99490.72;4966267;28;20484;-96
2023/03/18 12:35:53;;;;;;;3.90;1.00;;;;;;;16.13;65.67;99466.03;4960106;28;20098;-96
2023/03/18 12:38:37;;;;;;;6.90;0.70;;;;;;;15.90;66.45;99502.91;4972146;29;20087;-96
2023/03/18 12:41:12;;;;;;;4.10;0.65;;;;;;;16.04;66.49;99498.97;4959377;29;20035;-96
2023/03/18 12:43:50;;;;;;;3.13;0.70;;;;;;;15.94;67.36;99477.38;4953483;28;20046;-96
2023/03/18 12:46:39;;;;;;;6.00;0.85;;;;;;;15.92;67.74;99458.50;4951281;29;20036;-96
2023/03/18 12:49:52;;;;;;;5.68;1.05;;;;;;;15.34;68.82;99499.41;4953896;29;20043;-96
2023/03/18 12:52:53;;;;;;;2.70;0.65;;;;;;;15.74;66.09;99493.09;4961213;28;20130;-96
2023/03/18 12:55:50;;;;;;;5.63;0.95;;;;;;;15.57;67.27;99466.03;4977526;28;20035;-96
2023/03/18 12:59:03;;;;;;;5.90;0.88;;;;;;;15.55;67.68;99467.16;4967912;29;20051;-96
2023/03/18 13:01:54;;;;;;;5.72;1.05;;;;;;;16.48;64.33;99506.88;4963472;29;20050;-96
2023/03/18 13:16:54;;;;;;;4.03;0.65;;;;;;;18.88;52.48;99466.84;5180749;23;20063;-96
2023/03/18 15:45:06;;;;;;;2.33;0.52;;;;;;;14.69;65.02;99539.97;5030677;23;20043;-96
2023/03/18 15:47:41;;;;;;;;;;;;;;;14.83;64.14;99575.13;4944363;29;20087;-96
2023/03/18 15:50:36;;;;;;;2.35;0.63;;;;;;;14.53;66.07;99577.72;4946880;29;19923;-96
2023/03/18 15:54:01;;;;;;;;;;;;;;;;;;;;;
2023/03/18 16:43:27;;;;;;;2.55;0.40;;;;;;;12.32;75.76;99606.28;5656403;23;20555;-95
2023/03/18 16:45:58;;;;;;;1.63;0.30;;;;;;;11.89;77.62;99590.69;4932422;29;20040;-95
2023/03/18 16:48:27;;;;;;;6.80;0.75;;;;;;;12.15;77.60;99602.44;4905463;29;20802;-96
2023/03/18 16:50:53;;;;;;;6.03;0.40;;;;;;;12.18;76.46;99603.97;4905302;29;20032;-95
2023/03/18 16:53:22;;;;;;;2.33;0.47;;;;;;;12.08;76.91;99613.38;4900633;29;20044;-96
2023/03/18 16:56:07;;;;;;;1.90;0.52;;;;;;;12.20;76.33;99620.19;4915828;29;20032;-95
2023/03/18 16:59:11;;;;;;;3.47;0.60;;;;;;;11.95;76.15;99619.47;4922184;29;20035;-95